^^
Station Historical Data
 
Daily Summary for July 24, 2014 Units:  English    Metric   Both
« Previous Day
Next Day »
Daily Weekly Monthly Yearly Custom
  Current: High: Low: Average:
Temperature: 57.4 °F 77.5 °F 57.4 °F 67 °F
Dew Point: 52.6 °F 61.2 °F 49.9 °F 56.5 °F
Humidity: 84% 95% 39% 71%
Wind Speed: 1.0mph 7.3mph 0.2mph 2.6mph
Wind Gust: 1.6mph 11.4mph - -
WindNNW - - South
Pressure: 30.07 in 30.07 in 29.99 in -
Precipitation: 0.00 in      
Historical Graphs
 
 
Tabular Data for July 24, 2014
Time Temperature Dew Point Pressure Wind Wind Speed Wind Gust Humidity Rainfall Rate (Hourly)
00:01 65.1 °F 61.2 °F 30.00 in SSE 2.1 mph 3.1 mph 87% 0.00 in
00:06 65.1 °F 61.2 °F 30.00 in NNE 1.7 mph 2.2 mph 87% 0.00 in
00:11 64.9 °F 61.0 °F 30.00 in NNW 1.8 mph 2.2 mph 87% 0.00 in
00:16 64.9 °F 61.0 °F 30.01 in SW 2.4 mph 3.8 mph 87% 0.00 in
00:21 64.7 °F 61.1 °F 30.00 in South 2.7 mph 3.8 mph 88% 0.00 in
00:27 64.6 °F 60.9 °F 30.00 in SSE 3.1 mph 5.4 mph 88% 0.00 in
00:32 64.6 °F 60.9 °F 30.00 in SSE 3.1 mph 5.4 mph 88% 0.00 in
00:37 64.6 °F 60.9 °F 30.00 in SSE 2.1 mph 3.8 mph 88% 0.00 in
00:42 64.6 °F 60.9 °F 30.00 in South 1.5 mph 2.2 mph 88% 0.00 in
00:47 64.6 °F 60.9 °F 30.00 in South 1.5 mph 2.2 mph 88% 0.00 in
00:52 64.6 °F 60.9 °F 30.00 in SSW 1.3 mph 2.2 mph 88% 0.00 in
00:57 64.6 °F 60.9 °F 30.00 in South 1.6 mph 3.1 mph 88% 0.00 in
01:02 64.4 °F 60.8 °F 30.00 in SSE 1.9 mph 3.1 mph 88% 0.00 in
01:07 64.4 °F 60.8 °F 30.00 in SE 2.1 mph 2.2 mph 88% 0.00 in
01:12 64.2 °F 60.6 °F 30.00 in SE 1.8 mph 2.2 mph 88% 0.00 in
01:17 64.2 °F 60.9 °F 30.00 in SSW 1.7 mph 2.2 mph 89% 0.00 in
01:22 64.0 °F 60.7 °F 30.00 in SW 2.3 mph 3.1 mph 89% 0.00 in
01:27 63.8 °F 60.6 °F 30.01 in South 2.4 mph 3.1 mph 89% 0.00 in
01:32 63.8 °F 60.6 °F 30.01 in SSE 2.8 mph 3.8 mph 89% 0.00 in
01:37 63.7 °F 60.7 °F 30.01 in South 2.8 mph 3.8 mph 90% 0.00 in
01:42 63.5 °F 60.5 °F 30.01 in SSE 2.3 mph 3.8 mph 90% 0.00 in
01:47 63.5 °F 60.5 °F 30.00 in South 2.2 mph 3.1 mph 90% 0.00 in
01:52 63.5 °F 60.5 °F 30.00 in South 2.2 mph 3.1 mph 90% 0.00 in
01:57 63.3 °F 60.3 °F 30.00 in South 2.4 mph 3.8 mph 90% 0.00 in
02:02 63.3 °F 60.3 °F 30.00 in SE 2.2 mph 3.8 mph 90% 0.00 in
02:07 63.3 °F 60.3 °F 30.00 in SE 1.6 mph 3.1 mph 90% 0.00 in
02:12 63.1 °F 60.2 °F 30.00 in SSE 1.5 mph 2.2 mph 90% 0.00 in
02:17 63.1 °F 60.2 °F 30.00 in South 1.8 mph 3.1 mph 90% 0.00 in
02:22 63.1 °F 60.2 °F 30.00 in South 2.3 mph 3.1 mph 90% 0.00 in
02:27 63.1 °F 60.2 °F 30.00 in South 2.2 mph 3.1 mph 90% 0.00 in
02:32 63.1 °F 60.2 °F 30.00 in SSE 2.2 mph 3.1 mph 90% 0.00 in
02:37 63.1 °F 60.2 °F 30.00 in ESE 2.0 mph 3.1 mph 90% 0.00 in
02:42 63.1 °F 60.2 °F 30.00 in SSE 1.7 mph 3.1 mph 90% 0.00 in
02:47 63.1 °F 60.2 °F 30.00 in SSW 1.6 mph 3.1 mph 90% 0.00 in
02:52 63.3 °F 60.3 °F 30.00 in East 1.5 mph 3.1 mph 90% 0.00 in
02:57 63.3 °F 60.3 °F 30.00 in East 1.5 mph 3.1 mph 90% 0.00 in
03:02 63.3 °F 60.3 °F 30.00 in NNW 1.1 mph 2.2 mph 90% 0.00 in
03:07 63.3 °F 60.3 °F 30.00 in NW 0.9 mph 1.6 mph 90% 0.00 in
03:12 63.1 °F 60.2 °F 30.00 in NNW 0.8 mph 1.6 mph 90% 0.00 in
03:17 63.1 °F 60.2 °F 30.00 in SSW 1.1 mph 2.2 mph 90% 0.00 in
03:22 63.1 °F 60.2 °F 30.00 in SSE 1.4 mph 2.2 mph 90% 0.00 in
03:27 63.1 °F 60.2 °F 30.00 in SSE 1.8 mph 3.1 mph 90% 0.00 in
03:32 62.9 °F 60.0 °F 30.00 in South 2.0 mph 3.1 mph 90% 0.00 in
03:37 62.9 °F 60.3 °F 30.00 in South 1.6 mph 2.2 mph 91% 0.00 in
03:42 62.9 °F 60.3 °F 29.99 in South 1.2 mph 2.2 mph 91% 0.00 in
03:47 62.8 °F 60.1 °F 29.99 in SE 1.1 mph 3.1 mph 91% 0.00 in
03:52 62.6 °F 59.9 °F 29.99 in SSE 1.6 mph 3.1 mph 91% 0.00 in
03:57 62.6 °F 59.9 °F 29.99 in SSE 1.2 mph 3.1 mph 91% 0.00 in
04:02 62.4 °F 59.8 °F 29.99 in SW 0.5 mph 2.2 mph 91% 0.00 in
04:07 62.2 °F 59.9 °F 29.99 in South 0.6 mph 1.6 mph 92% 0.00 in
04:12 62.2 °F 59.9 °F 29.99 in WSW 0.7 mph 1.6 mph 92% 0.00 in
04:17 62.0 °F 59.7 °F 29.99 in NNW 0.4 mph 1.6 mph 92% 0.00 in
04:22 62.0 °F 59.7 °F 29.99 in ESE 0.4 mph 1.6 mph 92% 0.00 in
04:27 61.9 °F 59.5 °F 29.99 in East 1.0 mph 1.6 mph 92% 0.00 in
04:32 61.7 °F 59.3 °F 29.99 in South 1.4 mph 2.2 mph 92% 0.00 in
04:37 61.7 °F 59.7 °F 29.99 in SSW 1.6 mph 2.2 mph 93% 0.00 in
04:42 61.5 °F 59.5 °F 29.99 in South 1.8 mph 2.2 mph 93% 0.00 in
04:47 61.3 °F 59.3 °F 30.00 in South 1.5 mph 2.2 mph 93% 0.00 in
04:52 61.3 °F 59.3 °F 30.00 in SSW 0.8 mph 2.2 mph 93% 0.00 in
04:57 61.3 °F 59.6 °F 30.00 in South 1.3 mph 3.8 mph 94% 0.00 in
05:03 61.3 °F 59.6 °F 30.00 in South 2.2 mph 3.8 mph 94% 0.00 in
05:08 61.3 °F 59.6 °F 30.00 in South 2.2 mph 2.2 mph 94% 0.00 in
05:13 61.3 °F 59.6 °F 30.00 in South 2.0 mph 2.2 mph 94% 0.00 in
05:18 61.3 °F 59.6 °F 30.00 in SSE 2.0 mph 3.8 mph 94% 0.00 in
05:23 61.1 °F 59.4 °F 30.00 in SSE 2.4 mph 3.8 mph 94% 0.00 in
05:28 61.1 °F 59.4 °F 30.00 in SE 2.0 mph 3.8 mph 94% 0.00 in
05:33 61.1 °F 59.4 °F 30.00 in SE 1.8 mph 3.8 mph 94% 0.00 in
05:38 61.1 °F 59.1 °F 30.00 in SE 2.0 mph 3.8 mph 93% 0.00 in
05:43 61.1 °F 59.4 °F 30.00 in SE 2.1 mph 2.2 mph 94% 0.00 in
05:48 61.1 °F 59.1 °F 30.00 in ESE 1.8 mph 3.1 mph 93% 0.00 in
05:53 61.1 °F 59.1 °F 30.00 in East 1.3 mph 3.1 mph 93% 0.00 in
05:58 61.1 °F 59.1 °F 30.00 in ENE 1.1 mph 2.2 mph 93% 0.00 in
06:03 61.3 °F 59.3 °F 30.00 in ESE 1.2 mph 1.6 mph 93% 0.00 in
06:08 61.1 °F 59.1 °F 30.00 in SE 1.6 mph 2.2 mph 93% 0.00 in
06:13 61.0 °F 58.9 °F 30.00 in SE 1.6 mph 2.2 mph 93% 0.00 in
06:18 61.0 °F 58.9 °F 30.00 in East 1.4 mph 2.2 mph 93% 0.00 in
06:23 60.8 °F 58.8 °F 30.01 in NE 1.2 mph 2.2 mph 93% 0.00 in
06:28 60.8 °F 58.8 °F 30.00 in ENE 0.9 mph 2.2 mph 93% 0.00 in
06:33 60.6 °F 58.6 °F 30.00 in East 1.1 mph 2.2 mph 93% 0.00 in
06:38 60.4 °F 58.4 °F 30.00 in ENE 1.0 mph 2.2 mph 93% 0.00 in
06:43 60.2 °F 58.2 °F 30.00 in NNW 0.8 mph 1.6 mph 93% 0.00 in
06:48 60.1 °F 58.0 °F 30.00 in West 1.0 mph 1.6 mph 93% 0.00 in
06:53 59.9 °F 58.2 °F 30.00 in SSW 1.4 mph 3.1 mph 94% 0.00 in
06:58 59.7 °F 58.0 °F 30.00 in South 1.9 mph 3.1 mph 94% 0.00 in
07:03 59.7 °F 58.0 °F 30.00 in SSW 1.4 mph 2.2 mph 94% 0.00 in
07:08 59.7 °F 58.3 °F 30.00 in NNW 0.7 mph 1.6 mph 95% 0.00 in
07:13 59.7 °F 58.3 °F 30.00 in North 0.5 mph 1.6 mph 95% 0.00 in
07:18 59.9 °F 58.5 °F 30.00 in South 0.9 mph 2.2 mph 95% 0.00 in
07:23 60.1 °F 58.6 °F 30.01 in SE 1.2 mph 2.2 mph 95% 0.00 in
07:28 60.2 °F 58.8 °F 30.01 in SE 1.2 mph 2.2 mph 95% 0.00 in
07:33 60.4 °F 59.0 °F 30.01 in SE 1.5 mph 2.2 mph 95% 0.00 in
07:38 60.6 °F 58.9 °F 30.01 in ESE 1.7 mph 3.1 mph 94% 0.00 in
07:43 60.8 °F 59.1 °F 30.01 in East 2.1 mph 3.1 mph 94% 0.00 in
07:48 61.0 °F 59.2 °F 30.02 in East 2.2 mph 3.8 mph 94% 0.00 in
07:53 61.1 °F 59.4 °F 30.02 in East 2.0 mph 3.8 mph 94% 0.00 in
07:58 61.5 °F 59.5 °F 30.01 in ESE 2.2 mph 3.8 mph 93% 0.00 in
08:03 61.5 °F 59.5 °F 30.02 in ESE 3.2 mph 4.5 mph 93% 0.00 in
08:08 62.2 °F 59.6 °F 30.02 in ESE 3.7 mph 5.4 mph 91% 0.00 in
08:13 62.6 °F 59.9 °F 30.02 in East 3.2 mph 5.4 mph 91% 0.00 in
08:18 63.1 °F 60.2 °F 30.02 in NE 3.7 mph 6.9 mph 90% 0.00 in
08:23 63.5 °F 60.2 °F 30.02 in East 3.9 mph 6.9 mph 89% 0.00 in
08:28 63.7 °F 60.1 °F 30.02 in East 3.2 mph 4.5 mph 88% 0.00 in
08:33 63.8 °F 59.9 °F 30.02 in ENE 3.1 mph 4.5 mph 87% 0.00 in
08:38 64.2 °F 59.9 °F 30.02 in ENE 3.0 mph 4.5 mph 86% 0.00 in
08:43 64.7 °F 60.1 °F 30.02 in East 3.1 mph 4.5 mph 85% 0.00 in
08:48 65.6 °F 60.7 °F 30.02 in East 3.7 mph 5.4 mph 84% 0.00 in
08:53 66.2 °F 60.5 °F 30.02 in ESE 3.9 mph 6.0 mph 82% 0.00 in
08:58 66.5 °F 60.6 °F 30.02 in ESE 4.0 mph 7.6 mph 81% 0.00 in
09:03 66.5 °F 60.2 °F 30.02 in NE 4.0 mph 7.6 mph 80% 0.00 in
09:08 67.3 °F 60.5 °F 30.03 in NE 4.0 mph 4.5 mph 79% 0.00 in
09:13 67.4 °F 60.4 °F 30.02 in NNE 3.8 mph 4.5 mph 78% 0.00 in
09:18 67.6 °F 60.2 °F 30.03 in South 3.2 mph 4.5 mph 77% 0.00 in
09:23 67.8 °F 60.0 °F 30.02 in NW 2.8 mph 4.5 mph 76% 0.00 in
09:28 67.8 °F 59.6 °F 30.02 in NW 2.4 mph 3.8 mph 75% 0.00 in
09:33 68.0 °F 59.4 °F 30.02 in NE 2.9 mph 4.5 mph 74% 0.00 in
09:38 68.2 °F 59.6 °F 30.03 in East 4.1 mph 6.0 mph 74% 0.00 in
09:43 68.3 °F 59.4 °F 30.02 in ESE 4.3 mph 6.0 mph 73% 0.00 in
09:48 68.9 °F 59.9 °F 30.02 in ESE 4.6 mph 9.8 mph 73% 0.00 in
09:53 69.1 °F 58.9 °F 30.02 in East 4.4 mph 9.8 mph 70% 0.00 in
09:58 69.2 °F 59.5 °F 30.02 in East 3.9 mph 5.4 mph 71% 0.00 in
10:03 69.2 °F 59.5 °F 30.02 in East 3.6 mph 5.4 mph 71% 0.00 in
10:08 69.2 °F 59.1 °F 30.03 in East 3.1 mph 3.1 mph 70% 0.00 in
10:13 70.0 °F 59.8 °F 30.02 in East 4.1 mph 9.2 mph 70% 0.00 in
10:18 70.7 °F 58.8 °F 30.02 in East 4.9 mph 9.2 mph 66% 0.00 in
10:23 71.0 °F 58.7 °F 30.02 in ENE 4.1 mph 8.3 mph 65% 0.00 in
10:28 70.9 °F 56.8 °F 30.02 in SE 4.5 mph 7.6 mph 61% 0.00 in
10:33 70.5 °F 57.3 °F 30.02 in ESE 4.3 mph 7.6 mph 63% 0.00 in
10:39 70.9 °F 57.7 °F 30.02 in NE 4.0 mph 5.4 mph 63% 0.00 in
10:44 70.5 °F 57.3 °F 30.02 in NNE 4.8 mph 8.3 mph 63% 0.00 in
10:49 70.7 °F 57.1 °F 30.02 in ENE 4.8 mph 8.3 mph 62% 0.00 in
10:54 70.7 °F 57.5 °F 30.02 in NE 4.5 mph 6.9 mph 63% 0.00 in
10:59 71.2 °F 58.0 °F 30.02 in NE 4.6 mph 6.9 mph 63% 0.00 in
11:04 71.4 °F 57.7 °F 30.02 in NNW 5.7 mph 6.9 mph 62% 0.00 in
11:09 71.9 °F 57.8 °F 30.02 in NW 6.7 mph 7.6 mph 61% 0.00 in
11:14 72.8 °F 58.6 °F 30.02 in East 5.6 mph 7.6 mph 61% 0.00 in
11:19 73.0 °F 57.9 °F 30.02 in ESE 4.7 mph 7.6 mph 59% 0.00 in
11:24 72.7 °F 57.1 °F 30.02 in ENE 5.3 mph 7.6 mph 58% 0.00 in
11:29 71.9 °F 55.9 °F 30.02 in ENE 4.5 mph 6.9 mph 57% 0.00 in
11:34 71.6 °F 56.1 °F 30.03 in East 3.8 mph 5.4 mph 58% 0.00 in
11:39 71.6 °F 57.0 °F 30.02 in ESE 4.1 mph 6.9 mph 60% 0.00 in
11:44 71.4 °F 56.8 °F 30.03 in ENE 4.3 mph 6.9 mph 60% 0.00 in
11:49 71.9 °F 57.3 °F 30.03 in NE 5.3 mph 6.9 mph 60% 0.00 in
11:54 73.4 °F 57.7 °F 30.03 in ENE 5.9 mph 8.3 mph 58% 0.00 in
11:59 74.5 °F 58.3 °F 30.02 in ENE 5.6 mph 8.3 mph 57% 0.00 in
12:04 74.5 °F 58.3 °F 30.02 in East 6.3 mph 7.6 mph 57% 0.00 in
12:09 75.5 °F 57.2 °F 30.02 in East 7.3 mph 7.6 mph 53% 0.00 in
12:14 75.7 °F 55.8 °F 30.02 in East 6.2 mph 8.3 mph 50% 0.00 in
12:19 75.5 °F 55.6 °F 30.02 in East 5.2 mph 8.3 mph 50% 0.00 in
12:24 75.7 °F 56.3 °F 30.03 in ENE 5.5 mph 9.2 mph 51% 0.00 in
12:29 75.4 °F 54.3 °F 30.03 in East 5.8 mph 9.2 mph 48% 0.00 in
12:34 75.0 °F 54.6 °F 30.03 in East 4.8 mph 7.6 mph 49% 0.00 in
12:39 74.3 °F 55.0 °F 30.03 in ESE 3.4 mph 6.0 mph 51% 0.00 in
12:44 74.3 °F 55.0 °F 30.03 in SSE 2.9 mph 4.5 mph 51% 0.00 in
12:49 75.0 °F 56.7 °F 30.03 in SSW 3.5 mph 6.9 mph 53% 0.00 in
12:54 75.2 °F 54.7 °F 30.02 in NE 5.0 mph 7.6 mph 49% 0.00 in
12:59 75.5 °F 56.7 °F 30.02 in ENE 5.4 mph 7.6 mph 52% 0.00 in
13:04 75.5 °F 56.7 °F 30.03 in NNE 5.5 mph 7.6 mph 52% 0.00 in
13:09 76.3 °F 55.2 °F 30.03 in North 5.9 mph 6.0 mph 48% 0.00 in
13:14 76.4 °F 54.2 °F 30.03 in NNW 5.0 mph 6.0 mph 46% 0.00 in
13:19 76.4 °F 54.2 °F 30.02 in North 4.2 mph 6.9 mph 46% 0.00 in
13:24 76.3 °F 52.8 °F 30.02 in NE 4.4 mph 6.9 mph 44% 0.00 in
13:29 74.8 °F 53.3 °F 30.02 in NE 4.3 mph 6.9 mph 47% 0.00 in
13:34 74.5 °F 54.1 °F 30.02 in ENE 4.1 mph 6.9 mph 49% 0.00 in
13:39 75.0 °F 55.7 °F 30.02 in East 3.8 mph 5.4 mph 51% 0.00 in
13:44 75.7 °F 56.3 °F 30.01 in East 3.8 mph 5.4 mph 51% 0.00 in
13:49 75.9 °F 53.1 °F 30.01 in East 5.2 mph 8.3 mph 45% 0.00 in
13:54 75.0 °F 53.4 °F 30.01 in NNW 4.9 mph 8.3 mph 47% 0.00 in
13:59 73.7 °F 53.4 °F 30.01 in NNE 3.9 mph 6.9 mph 49% 0.00 in
14:04 73.7 °F 53.4 °F 30.01 in NNE 4.0 mph 6.9 mph 49% 0.00 in
14:09 73.0 °F 53.3 °F 30.01 in North 3.3 mph 3.8 mph 50% 0.00 in
14:14 73.0 °F 54.9 °F 30.01 in WNW 2.8 mph 3.8 mph 53% 0.00 in
14:19 74.1 °F 54.3 °F 30.01 in SSE 3.3 mph 4.5 mph 50% 0.00 in
14:24 74.5 °F 54.1 °F 30.01 in SE 3.8 mph 6.0 mph 49% 0.00 in
14:29 75.2 °F 53.0 °F 30.01 in ENE 4.0 mph 7.6 mph 46% 0.00 in
14:34 75.5 °F 52.7 °F 30.01 in NE 4.3 mph 7.6 mph 45% 0.00 in
14:39 76.1 °F 53.2 °F 30.00 in East 4.2 mph 7.6 mph 45% 0.00 in
14:44 76.6 °F 54.3 °F 30.01 in ESE 4.9 mph 11.4 mph 46% 0.00 in
14:49 76.4 °F 52.9 °F 30.01 in NE 5.1 mph 11.4 mph 44% 0.00 in
14:54 75.7 °F 53.5 °F 30.01 in ESE 4.2 mph 6.9 mph 46% 0.00 in
14:59 75.7 °F 54.7 °F 30.01 in ESE 3.7 mph 4.5 mph 48% 0.00 in
15:04 75.7 °F 54.7 °F 30.01 in West 3.9 mph 4.5 mph 48% 0.00 in
15:09 75.4 °F 52.6 °F 30.01 in West 4.1 mph 4.5 mph 45% 0.00 in
15:14 75.5 °F 53.9 °F 30.00 in NNW 3.8 mph 4.5 mph 47% 0.00 in
15:20 75.5 °F 53.3 °F 30.01 in East 4.2 mph 6.9 mph 46% 0.00 in
15:25 75.2 °F 54.2 °F 30.01 in ESE 4.4 mph 6.9 mph 48% 0.00 in
15:30 75.5 °F 55.1 °F 30.01 in ESE 4.9 mph 6.9 mph 49% 0.00 in
15:35 76.4 °F 54.2 °F 30.01 in East 4.9 mph 6.9 mph 46% 0.00 in
15:40 77.0 °F 54.1 °F 30.00 in ENE 4.8 mph 6.9 mph 45% 0.00 in
15:45 77.2 °F 53.0 °F 30.01 in ESE 4.2 mph 6.9 mph 43% 0.00 in
15:50 77.3 °F 51.8 °F 30.00 in East 4.3 mph 8.3 mph 41% 0.00 in
15:55 77.5 °F 50.6 °F 30.00 in East 4.3 mph 8.3 mph 39% 0.00 in
16:00 77.2 °F 52.3 °F 30.00 in ESE 3.5 mph 6.0 mph 42% 0.00 in
16:05 77.2 °F 52.3 °F 30.00 in ESE 3.6 mph 6.0 mph 42% 0.00 in
16:10 76.4 °F 52.3 °F 30.00 in SE 3.1 mph 5.4 mph 43% 0.00 in
16:15 76.3 °F 52.8 °F 30.00 in ESE 3.6 mph 5.4 mph 44% 0.00 in
16:20 76.1 °F 52.6 °F 30.00 in East 3.6 mph 5.4 mph 44% 0.00 in
16:25 75.7 °F 52.9 °F 30.00 in East 2.6 mph 4.5 mph 45% 0.00 in
16:30 75.0 °F 53.4 °F 30.00 in WNW 2.0 mph 3.1 mph 47% 0.00 in
16:35 73.9 °F 53.6 °F 30.00 in WNW 1.6 mph 2.2 mph 49% 0.00 in
16:40 73.7 °F 54.0 °F 30.00 in NE 2.0 mph 3.8 mph 50% 0.00 in
16:45 73.4 °F 53.6 °F 30.00 in NE 2.1 mph 3.8 mph 50% 0.00 in
16:50 73.0 °F 52.8 °F 30.00 in West 1.9 mph 3.1 mph 49% 0.00 in
16:55 72.8 °F 53.7 °F 30.00 in East 2.2 mph 3.8 mph 51% 0.00 in
17:00 72.5 °F 53.9 °F 30.00 in NNW 1.8 mph 3.8 mph 52% 0.00 in
17:05 72.5 °F 53.9 °F 30.00 in WNW 1.4 mph 2.2 mph 52% 0.00 in
17:10 73.0 °F 53.3 °F 29.99 in West 1.9 mph 3.8 mph 50% 0.00 in
17:15 73.2 °F 51.8 °F 29.99 in WSW 2.4 mph 3.8 mph 47% 0.00 in
17:20 73.2 °F 52.4 °F 29.99 in South 3.0 mph 5.4 mph 48% 0.00 in
17:25 73.4 °F 51.4 °F 30.00 in SE 3.6 mph 5.4 mph 46% 0.00 in
17:30 73.6 °F 52.1 °F 29.99 in East 3.6 mph 6.9 mph 47% 0.00 in
17:35 73.6 °F 52.7 °F 29.99 in ENE 3.2 mph 6.9 mph 48% 0.00 in
17:40 73.4 °F 52.5 °F 29.99 in SE 2.5 mph 4.5 mph 48% 0.00 in
17:45 73.2 °F 51.8 °F 29.99 in SSE 2.6 mph 4.5 mph 47% 0.00 in
17:50 72.8 °F 52.0 °F 29.99 in SSE 2.9 mph 4.5 mph 48% 0.00 in
17:55 72.8 °F 52.0 °F 29.99 in SE 2.8 mph 4.5 mph 48% 0.00 in
18:00 72.7 °F 52.4 °F 29.99 in SSE 2.9 mph 4.5 mph 49% 0.00 in
18:05 72.7 °F 52.4 °F 29.99 in South 2.8 mph 4.5 mph 49% 0.00 in
18:10 71.6 °F 51.4 °F 29.99 in South 2.4 mph 5.4 mph 49% 0.00 in
18:15 71.6 °F 50.3 °F 29.99 in SSE 3.3 mph 5.4 mph 47% 0.00 in
18:20 71.4 °F 50.7 °F 29.99 in SE 3.8 mph 4.5 mph 48% 0.00 in
18:25 71.0 °F 50.4 °F 30.00 in SSE 2.7 mph 4.5 mph 48% 0.00 in
18:30 70.9 °F 50.2 °F 29.99 in SE 2.7 mph 4.5 mph 48% 0.00 in
18:35 70.9 °F 51.3 °F 30.00 in SE 3.3 mph 4.5 mph 50% 0.00 in
18:40 70.5 °F 49.9 °F 30.00 in NW 2.6 mph 4.5 mph 48% 0.00 in
18:45 70.3 °F 50.8 °F 30.00 in NW 2.2 mph 3.8 mph 50% 0.00 in
18:50 70.0 °F 51.6 °F 30.00 in North 1.5 mph 3.8 mph 52% 0.00 in
18:55 69.8 °F 51.9 °F 30.00 in SSW 1.3 mph 2.2 mph 53% 0.00 in
19:00 69.6 °F 51.7 °F 30.00 in SW 1.7 mph 2.2 mph 53% 0.00 in
19:05 69.6 °F 51.7 °F 30.00 in SSW 1.7 mph 2.2 mph 53% 0.00 in
19:10 69.1 °F 52.7 °F 30.00 in South 1.7 mph 2.2 mph 56% 0.00 in
19:16 68.7 °F 52.9 °F 29.99 in WSW 1.5 mph 2.2 mph 57% 0.00 in
19:21 68.3 °F 53.5 °F 29.99 in NNW 1.2 mph 1.6 mph 59% 0.00 in
19:26 68.0 °F 53.6 °F 29.99 in NW 1.0 mph 1.6 mph 60% 0.00 in
19:31 67.8 °F 54.3 °F 29.99 in NW 1.0 mph 1.6 mph 62% 0.00 in
19:36 67.4 °F 54.4 °F 29.99 in NW 1.0 mph 1.6 mph 63% 0.00 in
19:41 67.1 °F 54.5 °F 29.99 in NNW 0.9 mph 1.6 mph 64% 0.00 in
19:46 66.9 °F 53.9 °F 30.00 in NNW 1.0 mph 1.6 mph 63% 0.00 in
19:51 66.7 °F 54.6 °F 30.00 in NNW 1.1 mph 1.6 mph 65% 0.00 in
19:56 66.5 °F 54.9 °F 30.00 in NNW 0.8 mph 1.6 mph 66% 0.00 in
20:01 66.4 °F 54.3 °F 30.00 in NW 0.8 mph 1.6 mph 65% 0.00 in
20:06 66.2 °F 54.9 °F 30.00 in WNW 0.9 mph 1.6 mph 67% 0.00 in
20:11 65.8 °F 54.6 °F 30.00 in NW 0.9 mph 1.6 mph 67% 0.00 in
20:16 65.6 °F 54.8 °F 30.00 in NW 1.0 mph 1.6 mph 68% 0.00 in
20:21 65.3 °F 54.5 °F 30.00 in NW 1.1 mph 1.6 mph 68% 0.00 in
20:26 64.9 °F 54.5 °F 30.00 in NW 1.0 mph 1.6 mph 69% 0.00 in
20:31 64.6 °F 54.6 °F 30.00 in NW 0.9 mph 1.6 mph 70% 0.00 in
20:36 64.4 °F 54.4 °F 30.00 in NW 0.9 mph 1.6 mph 70% 0.00 in
20:41 64.2 °F 54.2 °F 30.00 in NW 0.9 mph 1.6 mph 70% 0.00 in
20:46 64.0 °F 54.1 °F 30.00 in NW 0.6 mph 1.6 mph 70% 0.00 in
20:51 63.7 °F 53.7 °F 30.00 in Calm   0.7 mph 70% 0.00 in
20:56 63.5 °F 53.5 °F 30.00 in Calm     70% 0.00 in
21:01 63.3 °F 53.8 °F 30.00 in Calm     71% 0.00 in
21:06 63.3 °F 53.8 °F 30.01 in Calm     71% 0.00 in
21:11 62.8 °F 53.2 °F 30.00 in Calm     71% 0.00 in
21:16 62.6 °F 53.4 °F 30.01 in Calm   0.7 mph 72% 0.00 in
21:21 62.2 °F 53.1 °F 30.01 in NNW 0.3 mph 1.6 mph 72% 0.00 in
21:26 61.9 °F 53.1 °F 30.01 in NNW 0.6 mph 1.6 mph 73% 0.00 in
21:31 61.7 °F 53.0 °F 30.01 in NNW 0.6 mph 0.7 mph 73% 0.00 in
21:36 61.5 °F 53.2 °F 30.01 in WNW 0.7 mph 1.6 mph 74% 0.00 in
21:41 61.1 °F 52.8 °F 30.02 in West 0.7 mph 1.6 mph 74% 0.00 in
21:46 61.0 °F 52.6 °F 30.02 in West 0.7 mph 1.6 mph 74% 0.00 in
21:51 60.8 °F 52.8 °F 30.02 in West 0.7 mph 1.6 mph 75% 0.00 in
21:56 60.6 °F 53.0 °F 30.02 in West 0.5 mph 0.7 mph 76% 0.00 in
22:01 60.4 °F 52.8 °F 30.02 in West 0.5 mph 0.7 mph 76% 0.00 in
22:06 60.4 °F 52.8 °F 30.03 in West 0.6 mph 0.7 mph 76% 0.00 in
22:11 60.1 °F 52.8 °F 30.03 in West 0.6 mph 1.6 mph 77% 0.00 in
22:16 59.7 °F 52.5 °F 30.03 in WNW 0.6 mph 1.6 mph 77% 0.00 in
22:21 59.5 °F 52.7 °F 30.04 in NNW 0.8 mph 1.6 mph 78% 0.00 in
22:27 59.3 °F 52.8 °F 30.04 in NNW 0.6 mph 1.6 mph 79% 0.00 in
22:32 59.2 °F 52.7 °F 30.05 in NNW 0.2 mph 0.7 mph 79% 0.00 in
22:37 59.0 °F 52.5 °F 30.04 in Calm     79% 0.00 in
22:42 59.0 °F 52.8 °F 30.05 in Calm     80% 0.00 in
22:47 58.6 °F 52.5 °F 30.05 in Calm     80% 0.00 in
22:52 58.6 °F 52.5 °F 30.05 in Calm     80% 0.00 in
22:57 58.4 °F 52.6 °F 30.06 in NNW 0.4 mph 1.6 mph 81% 0.00 in
23:02 58.3 °F 52.5 °F 30.05 in NNW 1.0 mph 1.6 mph 81% 0.00 in
23:07 58.3 °F 52.5 °F 30.06 in NW 1.4 mph 1.6 mph 81% 0.00 in
23:12 57.9 °F 52.4 °F 30.06 in NW 1.4 mph 2.2 mph 82% 0.00 in
23:17 57.9 °F 52.4 °F 30.06 in NNW 1.0 mph 2.2 mph 82% 0.00 in
23:22 57.7 °F 52.6 °F 30.06 in NNW 0.7 mph 1.6 mph 83% 0.00 in
23:27 57.5 °F 52.4 °F 30.07 in NW 1.0 mph 1.6 mph 83% 0.00 in
23:32 57.5 °F 52.8 °F 30.07 in NNW 1.0 mph 1.6 mph 84% 0.00 in
23:37 57.4 °F 52.6 °F 30.07 in NNW 1.0 mph 1.6 mph 84% 0.00 in
Export, Pennsylvania, USA
Compliments of Weather Underground